Time;durP1;ratioP1;P1;durP2;ratioP2;P2;SDS_P1;SDS_P2;PMS_P1;PMS_P2;Temp;Humidity;BMP_temperature;BMP_pressure;BME280_temperature;BME280_humidity;BME280_pressure;Samples;Min_cycle;Max_cycle;Signal;HPM_P1;HPM_P2
2022/01/17 00:00:56;;;;;;;26.17;13.57;;;;;;;1.87;98.48;100253.75;5043396;28;20107;-69
2022/01/17 00:03:24;;;;;;;29.13;14.45;;;;;;;1.89;99.10;100251.81;5046557;28;20103;-68
2022/01/17 00:05:51;;;;;;;29.13;14.60;;;;;;;1.74;98.60;100228.91;5047662;28;20025;-68
2022/01/17 00:08:17;;;;;;;31.60;14.88;;;;;;;1.87;98.32;100255.56;5047110;28;20024;-68
2022/01/17 00:10:42;;;;;;;30.85;14.68;;;;;;;1.68;98.35;100227.56;5046437;28;20032;-68
2022/01/17 00:13:10;;;;;;;29.63;14.40;;;;;;;1.91;98.46;100257.03;5051102;28;20355;-67
2022/01/17 00:15:47;;;;;;;26.90;14.63;;;;;;;1.79;98.20;100232.09;5051311;28;20028;-68
2022/01/17 00:20:37;;;;;;;26.95;13.85;;;;;;;2.10;97.28;100243.19;5040797;28;20529;-70
2022/01/17 00:23:03;;;;;;;25.83;13.43;;;;;;;2.15;96.55;100241.03;5046961;28;20480;-68
2022/01/17 00:25:28;;;;;;;29.80;13.30;;;;;;;2.05;97.69;100243.53;5045379;28;20039;-68
2022/01/17 00:27:53;;;;;;;29.98;13.15;;;;;;;2.05;97.69;100248.03;5042894;28;20030;-69
2022/01/17 00:30:19;;;;;;;26.35;13.13;;;;;;;2.03;98.29;100255.28;5043843;28;20055;-70
2022/01/17 00:32:45;;;;;;;26.33;12.88;;;;;;;1.87;97.83;100232.38;5050765;28;20071;-67
2022/01/17 00:35:10;;;;;;;25.30;12.80;;;;;;;2.00;97.82;100255.53;5051211;28;20025;-70
2022/01/17 00:37:36;;;;;;;25.58;12.27;;;;;;;2.04;97.72;100265.84;5038999;28;20386;-68
2022/01/17 00:40:03;;;;;;;27.25;13.32;;;;;;;2.02;97.09;100264.25;5041710;28;20029;-68
2022/01/17 00:42:28;;;;;;;24.25;12.88;;;;;;;2.12;97.05;100257.25;5043938;28;20017;-71
2022/01/17 00:44:53;;;;;;;32.08;15.07;;;;;;;2.02;96.49;100261.56;5049593;28;20024;-68
2022/01/17 00:47:18;;;;;;;32.85;14.90;;;;;;;1.86;97.35;100246.72;5054951;28;20068;-68
2022/01/17 00:49:44;;;;;;;32.75;14.80;;;;;;;2.02;97.64;100258.91;5045737;28;20036;-69
2022/01/17 00:52:09;;;;;;;29.63;14.82;;;;;;;2.06;97.36;100273.75;5049385;28;20076;-68
2022/01/17 00:54:34;;;;;;;27.92;13.15;;;;;;;1.98;97.72;100261.81;5038177;28;20044;-69
2022/01/17 00:57:00;;;;;;;25.20;13.07;;;;;;;1.95;97.78;100272.72;5047300;28;20058;-68
2022/01/17 00:59:25;;;;;;;26.77;13.68;;;;;;;1.98;96.43;100267.13;5045517;28;20029;-67
2022/01/17 01:01:50;;;;;;;32.42;13.05;;;;;;;2.05;96.65;100288.91;5054635;28;20033;-69
2022/01/17 01:04:16;;;;;;;31.27;12.75;;;;;;;1.97;95.25;100275.28;5047476;28;20030;-69
2022/01/17 01:06:41;;;;;;;31.63;14.07;;;;;;;1.89;95.34;100277.66;5045467;28;20132;-68
2022/01/17 01:09:06;;;;;;;27.13;13.05;;;;;;;1.87;95.64;100280.44;5037582;28;20033;-69
2022/01/17 01:11:32;;;;;;;29.83;14.13;;;;;;;1.80;95.96;100287.16;5035271;28;20095;-69
2022/01/17 01:13:57;;;;;;;25.77;12.45;;;;;;;1.82;95.73;100281.72;5041657;28;20092;-68
2022/01/17 01:16:33;;;;;;;29.05;13.48;;;;;;;1.74;96.14;100284.94;5051812;28;20040;-72
2022/01/17 01:29:50;;;;;;;30.70;14.30;;;;;;;1.73;96.78;100288.59;5053908;28;20039;-66
2022/01/17 01:32:20;;;;;;;29.08;14.32;;;;;;;1.68;96.97;100290.72;5048765;28;20122;-67
2022/01/17 01:34:50;;;;;;;34.55;15.30;;;;;;;1.60;97.11;100280.63;5051816;28;20390;-71
2022/01/17 01:37:15;;;;;;;28.77;14.48;;;;;;;1.54;97.49;100284.53;5052194;28;20024;-67
2022/01/17 01:39:41;;;;;;;32.50;14.93;;;;;;;1.43;98.17;100273.78;5033796;28;20021;-66
2022/01/17 01:42:16;;;;;;;31.88;14.43;;;;;;;1.54;97.57;100281.88;5049285;28;20044;-68
2022/01/17 01:44:42;;;;;;;30.08;14.43;;;;;;;1.39;97.53;100252.78;5040278;28;20028;-67
2022/01/17 01:47:07;;;;;;;34.63;16.45;;;;;;;1.46;97.81;100270.91;5047669;28;20382;-67
2022/01/17 01:49:32;;;;;;;32.22;15.25;;;;;;;1.54;98.36;100267.69;5053020;28;20028;-69
2022/01/17 01:51:58;;;;;;;34.50;15.15;;;;;;;1.37;99.22;100260.91;5050081;28;22541;-67
2022/01/17 01:54:23;;;;;;;33.22;15.70;;;;;;;1.15;99.23;100239.38;5050319;28;20112;-67
2022/01/17 01:56:50;;;;;;;36.15;16.45;;;;;;;1.39;99.66;100264.31;5053468;28;20033;-70
2022/01/17 01:59:19;;;;;;;39.55;16.60;;;;;;;1.28;99.50;100267.75;5048405;28;20025;-71
2022/01/17 02:01:45;;;;;;;37.40;16.13;;;;;;;1.19;99.56;100240.88;5051711;28;20028;-67
2022/01/17 02:04:10;;;;;;;40.63;15.35;;;;;;;1.36;99.83;100269.84;5049328;28;20498;-71
2022/01/17 02:06:36;;;;;;;35.75;15.98;;;;;;;1.33;99.86;100270.06;5052733;28;20059;-66
2022/01/17 02:09:03;;;;;;;38.47;16.40;;;;;;;1.33;99.81;100274.56;5053154;28;20494;-67
2022/01/17 02:11:28;;;;;;;35.08;15.85;;;;;;;1.32;99.80;100268.38;5052497;28;20027;-65
2022/01/17 02:13:53;;;;;;;40.10;16.20;;;;;;;1.28;99.92;100274.88;5053038;28;20104;-68
2022/01/17 02:16:22;;;;;;;39.80;16.50;;;;;;;1.14;100.00;100259.00;5047881;28;20083;-69
2022/01/17 02:18:49;;;;;;;37.40;16.90;;;;;;;1.24;100.00;100286.72;5043575;28;20079;-68
2022/01/17 02:23:45;;;;;;;33.13;14.37;;;;;;;1.29;100.00;100274.78;5052878;28;20021;-67
2022/01/17 02:26:11;;;;;;;38.38;16.27;;;;;;;1.18;100.00;100273.81;5052870;28;20394;-67
2022/01/17 02:28:37;;;;;;;40.90;16.52;;;;;;;0.96;100.00;100240.66;5047460;28;20074;-67
2022/01/17 02:31:05;;;;;;;29.17;13.88;;;;;;;1.29;100.00;100289.94;5038779;28;20471;-67
2022/01/17 02:33:31;;;;;;;33.25;14.85;;;;;;;1.28;100.00;100281.09;5048301;28;20063;-67
2022/01/17 02:35:57;;;;;;;31.45;14.50;;;;;;;1.38;100.00;100289.25;5052397;28;20025;-67
2022/01/17 02:38:22;;;;;;;29.27;13.40;;;;;;;1.23;100.00;100267.22;5052446;28;20514;-67
2022/01/17 02:40:52;;;;;;;31.35;13.15;;;;;;;1.45;100.00;100279.88;5052675;28;20033;-69
2022/01/17 02:43:20;;;;;;;34.42;13.98;;;;;;;1.42;100.00;100293.44;5051392;28;20037;-68
2022/01/17 02:48:19;;;;;;;30.95;13.90;;;;;;;1.34;100.00;100281.56;5052148;28;20043;-66
2022/01/17 02:50:44;;;;;;;27.80;13.65;;;;;;;1.31;100.00;100266.69;5036917;28;20040;-69
2022/01/17 02:53:12;;;;;;;32.25;13.05;;;;;;;1.32;99.79;100279.03;5032261;28;20379;-67
2022/01/17 02:55:39;;;;;;;29.65;13.00;;;;;;;1.50;99.38;100282.22;5042916;28;20025;-67
2022/01/17 02:58:05;;;;;;;27.83;12.85;;;;;;;1.41;99.95;100267.72;5058878;22;20010;-71
2022/01/17 03:00:30;;;;;;;33.20;14.30;;;;;;;1.44;99.43;100266.63;5054294;28;20120;-70
2022/01/17 03:02:55;;;;;;;30.45;12.75;;;;;;;1.39;99.60;100267.00;5063139;28;20037;-71
2022/01/17 03:05:21;;;;;;;30.58;13.27;;;;;;;1.45;100.00;100282.53;5066110;28;20107;-72
2022/01/17 03:07:48;;;;;;;28.88;12.63;;;;;;;1.44;99.86;100277.31;5063306;28;20480;-71
2022/01/17 03:13:04;;;;;;;26.70;12.75;;;;;;;1.53;98.76;100274.00;5047905;28;20044;-70
2022/01/17 03:15:29;;;;;;;27.05;13.00;;;;;;;1.57;98.99;100275.47;5044497;28;20478;-71
2022/01/17 03:17:55;;;;;;;29.20;12.65;;;;;;;1.60;99.49;100277.06;5037310;28;20064;-72
2022/01/17 03:20:20;;;;;;;29.00;12.57;;;;;;;1.65;97.71;100272.25;5046541;28;20043;-71
2022/01/17 03:22:46;;;;;;;27.23;11.50;;;;;;;1.68;97.20;100259.56;5047306;28;20451;-71
2022/01/17 03:25:11;;;;;;;26.92;12.50;;;;;;;1.61;97.29;100263.63;5056866;28;20030;-71
2022/01/17 03:27:37;;;;;;;30.30;13.27;;;;;;;1.46;97.41;100244.22;5045188;28;20025;-72
2022/01/17 03:30:03;;;;;;;28.90;13.82;;;;;;;1.44;97.84;100259.53;5032364;28;20297;-73
2022/01/17 03:32:28;;;;;;;31.25;13.75;;;;;;;1.47;97.96;100272.63;5032351;28;20032;-74
2022/01/17 03:34:55;;;;;;;27.50;12.68;;;;;;;1.47;96.97;100255.78;5063697;28;20037;-74
2022/01/17 03:37:21;;;;;;;27.00;12.55;;;;;;;1.54;96.49;100276.53;5070062;28;20386;-73
2022/01/17 03:39:46;;;;;;;27.42;12.20;;;;;;;1.65;96.24;100272.25;5038542;28;20033;-74
2022/01/17 03:42:11;;;;;;;26.92;13.00;;;;;;;1.55;96.00;100264.09;5041275;28;20052;-73
2022/01/17 03:44:37;;;;;;;26.92;13.32;;;;;;;1.65;96.08;100280.25;5056033;28;20124;-74
2022/01/17 03:47:03;;;;;;;29.70;13.57;;;;;;;1.56;96.38;100281.78;5062065;28;20032;-72
2022/01/17 03:49:28;;;;;;;31.58;12.80;;;;;;;1.60;96.95;100279.72;5031940;28;20025;-72
2022/01/17 03:51:53;;;;;;;26.65;12.70;;;;;;;1.57;95.78;100280.81;5033683;28;20033;-71
2022/01/17 03:54:19;;;;;;;28.88;13.15;;;;;;;1.61;97.11;100286.78;5067940;27;20040;-68
2022/01/17 03:56:44;;;;;;;26.77;12.15;;;;;;;1.60;96.51;100282.41;5067682;28;20021;-68
2022/01/17 03:59:11;;;;;;;32.85;13.10;;;;;;;1.54;96.69;100281.88;5053247;28;20041;-71
2022/01/17 04:01:37;;;;;;;28.15;11.63;;;;;;;1.61;97.26;100282.31;5053002;28;20024;-73
2022/01/17 04:04:03;;;;;;;29.08;12.88;;;;;;;1.48;98.19;100289.47;5052207;28;20032;-76
2022/01/17 04:06:29;;;;;;;30.83;13.50;;;;;;;1.42;98.19;100263.25;5063276;28;20084;-76
2022/01/17 04:08:54;;;;;;;24.60;11.82;;;;;;;1.35;98.79;100262.81;5059774;28;20029;-75
2022/01/17 04:11:19;;;;;;;25.98;11.43;;;;;;;1.50;98.53;100266.22;5070119;28;20021;-76
2022/01/17 04:13:46;;;;;;;27.98;12.38;;;;;;;1.52;98.78;100269.63;5062006;28;20056;-74
2022/01/17 04:16:12;;;;;;;25.60;11.10;;;;;;;1.56;98.13;100264.94;5070432;28;20086;-75
2022/01/17 04:18:38;;;;;;;30.63;12.32;;;;;;;1.47;98.22;100261.13;5058068;28;20036;-74
2022/01/17 04:21:03;;;;;;;30.02;11.50;;;;;;;1.46;98.44;100254.91;5074608;28;20016;-76
2022/01/17 04:23:30;;;;;;;28.15;12.63;;;;;;;1.54;99.03;100255.19;5073710;27;20037;-76
2022/01/17 04:25:56;;;;;;;23.52;10.80;;;;;;;1.56;98.44;100260.44;5050229;28;20021;-76
2022/01/17 04:28:21;;;;;;;26.40;10.75;;;;;;;1.53;97.91;100256.19;5043361;28;20479;-76
2022/01/17 04:30:47;;;;;;;20.77;9.88;;;;;;;1.45;98.51;100255.88;5038893;28;20033;-76
2022/01/17 04:33:13;;;;;;;22.88;10.10;;;;;;;1.54;98.43;100267.69;5050231;28;20044;-76
2022/01/17 04:35:39;;;;;;;22.92;9.73;;;;;;;1.64;98.33;100281.22;5058009;28;20024;-75
2022/01/17 04:38:07;;;;;;;20.67;9.00;;;;;;;1.65;98.35;100288.25;5070606;28;20060;-75
2022/01/17 04:40:38;;;;;;;18.63;8.52;;;;;;;1.71;98.18;100286.03;5056229;28;20061;-75
2022/01/17 04:43:13;;;;;;;19.38;8.50;;;;;;;1.70;98.62;100283.44;5039880;28;20025;-74
2022/01/17 04:45:38;;;;;;;18.25;8.68;;;;;;;1.51;99.63;100279.44;5038833;28;20044;-74
2022/01/17 04:48:04;;;;;;;14.73;7.38;;;;;;;1.60;99.27;100279.72;5057022;28;20535;-75
2022/01/17 04:50:29;;;;;;;15.27;7.68;;;;;;;1.53;98.92;100282.84;5046282;28;20123;-75
2022/01/17 04:52:56;;;;;;;16.55;7.97;;;;;;;1.56;99.21;100280.94;5043829;28;20034;-75
2022/01/17 04:55:23;;;;;;;14.43;7.05;;;;;;;1.65;98.43;100285.59;5054795;28;20037;-76
2022/01/17 04:57:49;;;;;;;14.25;6.97;;;;;;;1.61;98.44;100278.78;5041583;28;20037;-77
2022/01/17 05:00:17;;;;;;;14.75;6.78;;;;;;;1.61;98.80;100286.78;5043613;28;20478;-76
2022/01/17 05:02:43;;;;;;;15.33;7.37;;;;;;;1.73;98.31;100305.44;5054099;28;20035;-76
2022/01/17 05:05:10;;;;;;;17.70;7.80;;;;;;;1.65;98.05;100282.94;5051906;28;20029;-75
2022/01/17 05:07:35;;;;;;;20.17;7.43;;;;;;;1.60;97.81;100267.28;5045927;28;20033;-74
2022/01/17 05:10:04;;;;;;;16.83;7.30;;;;;;;1.63;98.32;100269.72;5054690;28;20096;-74
2022/01/17 05:12:30;;;;;;;17.05;7.35;;;;;;;1.79;97.83;100273.94;5052100;28;20034;-76
2022/01/17 05:14:56;;;;;;;18.77;7.70;;;;;;;1.62;97.18;100235.13;5053944;28;20111;-76
2022/01/17 05:19:59;;;;;;;17.23;8.10;;;;;;;1.78;96.34;100274.91;5037594;28;20025;-76
2022/01/17 05:22:32;;;;;;;18.45;8.38;;;;;;;1.84;96.60;100279.81;5035307;28;20390;-75
2022/01/17 05:24:58;;;;;;;20.67;8.93;;;;;;;1.69;97.04;100274.59;5038923;28;20068;-73
2022/01/17 05:27:24;;;;;;;20.00;8.30;;;;;;;1.67;97.07;100273.84;5049637;28;20036;-74
2022/01/17 05:29:49;;;;;;;18.27;9.10;;;;;;;1.72;96.60;100282.38;5065629;28;20421;-76
2022/01/17 05:32:15;;;;;;;18.75;8.93;;;;;;;1.68;96.53;100264.06;5040577;28;20037;-78
2022/01/17 05:34:41;;;;;;;16.77;8.35;;;;;;;1.65;96.55;100259.78;5042700;28;20056;-75
2022/01/17 05:37:08;;;;;;;19.50;8.27;;;;;;;1.63;96.26;100253.72;5035995;28;20087;-74
2022/01/17 05:39:34;;;;;;;22.55;9.50;;;;;;;1.52;96.38;100233.16;5042121;28;20078;-75
2022/01/17 05:42:00;;;;;;;20.27;9.15;;;;;;;1.68;96.23;100256.06;5045881;28;20066;-78
2022/01/17 05:44:25;;;;;;;20.27;9.43;;;;;;;1.47;96.80;100237.97;5042128;28;20028;-78
2022/01/17 05:46:50;;;;;;;20.13;9.05;;;;;;;1.75;96.63;100271.47;5067690;28;20100;-74
2022/01/17 05:49:16;;;;;;;20.70;9.10;;;;;;;1.83;96.08;100268.25;5042966;28;20035;-72
2022/01/17 05:51:41;;;;;;;19.20;9.68;;;;;;;1.79;96.16;100277.47;5038571;28;20399;-76
2022/01/17 05:54:07;;;;;;;17.90;9.25;;;;;;;1.81;95.52;100283.56;5054530;28;20041;-76
2022/01/17 05:56:33;;;;;;;20.92;9.95;;;;;;;1.75;95.07;100281.31;5048565;28;20112;-75
2022/01/17 05:58:58;;;;;;;21.02;9.77;;;;;;;1.85;95.71;100314.38;5033716;28;20044;-74
2022/01/17 06:01:25;;;;;;;20.23;9.82;;;;;;;1.81;94.68;100302.22;5043216;28;20033;-74
2022/01/17 06:03:50;;;;;;;19.45;9.55;;;;;;;1.88;94.66;100305.28;5033276;28;20426;-74
2022/01/17 06:06:15;;;;;;;21.10;9.52;;;;;;;1.87;94.86;100312.44;5043853;28;20029;-76
2022/01/17 06:08:42;;;;;;;21.35;9.20;;;;;;;1.86;95.29;100315.22;5050314;28;20095;-74
2022/01/17 06:11:07;;;;;;;21.48;9.50;;;;;;;1.82;95.18;100297.75;5039006;28;20382;-76
2022/01/17 06:13:33;;;;;;;23.67;10.30;;;;;;;1.84;94.92;100296.66;5050109;28;20080;-81
2022/01/17 06:15:58;;;;;;;20.95;9.98;;;;;;;1.92;95.12;100307.63;5046469;28;20120;-76
2022/01/17 06:18:23;;;;;;;21.23;9.60;;;;;;;1.96;94.16;100327.81;5045259;28;20025;-77
2022/01/17 06:20:49;;;;;;;17.60;8.88;;;;;;;1.72;94.70;100284.19;5041017;28;20060;-75
2022/01/17 06:23:14;;;;;;;21.00;10.38;;;;;;;1.81;94.48;100304.91;5038319;28;20097;-76
2022/01/17 06:25:39;;;;;;;26.73;10.93;;;;;;;1.80;94.01;100305.84;5043764;28;20025;-75
2022/01/17 06:28:05;;;;;;;23.35;10.30;;;;;;;1.84;93.34;100291.31;5042504;28;20020;-76
2022/01/17 06:30:30;;;;;;;20.50;9.40;;;;;;;1.90;93.75;100312.22;5043099;28;20128;-74
2022/01/17 06:32:55;;;;;;;20.92;9.73;;;;;;;1.87;93.66;100320.47;5053253;28;20115;-75
2022/01/17 06:35:21;;;;;;;21.48;10.38;;;;;;;1.93;94.16;100337.84;5045859;28;20040;-76
2022/01/17 06:37:48;;;;;;;20.17;9.95;;;;;;;1.89;93.75;100331.88;5036956;28;20043;-81
2022/01/17 06:40:14;;;;;;;20.75;10.38;;;;;;;1.94;93.58;100352.91;5042364;28;20453;-75
2022/01/17 06:42:40;;;;;;;20.88;10.27;;;;;;;1.86;93.44;100331.22;5044030;28;20485;-74
2022/01/17 06:45:05;;;;;;;22.40;9.93;;;;;;;1.80;93.22;100337.00;5041884;28;20016;-77
2022/01/17 06:47:35;;;;;;;24.45;9.40;;;;;;;1.91;92.79;100361.09;5031344;28;20025;-77
2022/01/17 06:50:04;;;;;;;21.95;10.07;;;;;;;1.79;93.00;100349.50;5032918;28;20021;-77
2022/01/17 06:52:30;;;;;;;16.02;8.30;;;;;;;1.93;93.22;100367.19;5043995;28;20397;-70
2022/01/17 06:54:55;;;;;;;20.67;9.85;;;;;;;1.86;93.13;100364.13;5055933;28;20033;-80
2022/01/17 06:57:22;;;;;;;20.27;10.10;;;;;;;1.77;93.24;100343.41;5038878;28;20043;-79
2022/01/17 06:59:48;;;;;;;19.77;9.48;;;;;;;1.84;93.51;100339.38;5037277;28;20072;-80
2022/01/17 07:02:13;;;;;;;21.60;9.82;;;;;;;1.86;92.91;100334.78;5048035;28;20033;-78
2022/01/17 07:04:38;;;;;;;21.88;10.88;;;;;;;1.71;93.81;100317.19;5035278;28;20301;-79
2022/01/17 07:07:16;;;;;;;20.63;10.50;;;;;;;1.63;93.78;100295.53;5050042;28;20045;-80
2022/01/17 07:09:41;;;;;;;23.45;11.40;;;;;;;1.54;94.12;100259.69;5022410;28;20037;-77
2022/01/17 07:12:07;;;;;;;18.38;9.75;;;;;;;1.84;93.70;100314.50;5036200;28;20070;-78
2022/01/17 07:14:33;;;;;;;20.27;10.15;;;;;;;1.93;92.98;100344.03;5035110;28;20364;-76
2022/01/17 07:16:58;;;;;;;22.80;9.05;;;;;;;1.63;93.27;100319.56;5033563;28;20055;-77
2022/01/17 07:19:24;;;;;;;24.00;9.90;;;;;;;1.72;93.70;100356.22;5032545;28;20029;-76
2022/01/17 07:21:51;;;;;;;20.77;9.45;;;;;;;1.88;93.29;100372.84;5057484;28;20037;-84
2022/01/17 07:24:17;;;;;;;21.02;9.60;;;;;;;1.97;92.65;100382.88;5057879;28;20147;-80
2022/01/17 07:26:43;;;;;;;24.70;10.77;;;;;;;1.96;91.77;100404.34;5068383;28;20044;-79
2022/01/17 07:29:08;;;;;;;19.52;9.35;;;;;;;1.96;92.01;100423.03;5073102;28;20091;-79
2022/01/17 07:31:38;;;;;;;24.45;10.40;;;;;;;2.05;92.01;100432.22;5058162;28;20036;-80
2022/01/17 07:34:04;;;;;;;23.00;10.80;;;;;;;2.09;91.79;100412.34;5061185;28;20037;-80
2022/01/17 07:36:30;;;;;;;24.40;11.45;;;;;;;1.89;91.39;100382.59;5041323;28;20052;-76
2022/01/17 07:38:56;;;;;;;23.52;10.20;;;;;;;1.98;92.18;100400.59;5030835;28;20025;-75
2022/01/17 07:41:22;;;;;;;26.52;11.80;;;;;;;2.04;91.55;100404.66;5042770;28;20021;-76
2022/01/17 07:43:48;;;;;;;23.40;11.80;;;;;;;2.01;92.25;100409.34;5048766;28;20032;-76
2022/01/17 07:47:01;;;;;;;22.67;11.38;;;;;;;2.00;92.50;100416.53;5050643;28;20381;-75
2022/01/17 07:49:13;;;;;;;24.70;11.23;;;;;;;1.98;91.99;100405.09;5047912;28;20085;-76
2022/01/17 07:51:44;;;;;;;22.63;10.40;;;;;;;2.05;92.40;100434.88;5036831;28;20066;-76
2022/01/17 07:54:14;;;;;;;22.50;11.13;;;;;;;1.88;92.32;100404.88;5034560;28;20398;-75
2022/01/17 07:56:40;;;;;;;24.38;10.60;;;;;;;1.85;93.82;100413.09;5040662;28;20037;-77
2022/01/17 07:59:07;;;;;;;24.08;10.55;;;;;;;1.97;93.24;100406.91;5034936;28;20021;-71
2022/01/17 08:01:33;;;;;;;25.58;11.88;;;;;;;1.97;92.78;100401.56;5049716;28;20378;-72
2022/01/17 08:03:59;;;;;;;27.88;12.07;;;;;;;1.90;93.12;100408.31;5057609;28;20175;-72
2022/01/17 08:06:24;;;;;;;26.50;11.38;;;;;;;1.84;93.41;100373.22;5045124;28;20569;-72
2022/01/17 08:08:50;;;;;;;22.77;11.27;;;;;;;1.96;93.33;100383.88;5038694;28;20082;-72
2022/01/17 08:11:15;;;;;;;26.30;12.20;;;;;;;2.15;92.87;100377.22;5044983;28;20483;-75
2022/01/17 08:13:42;;;;;;;21.60;10.82;;;;;;;2.06;93.09;100369.84;5031208;28;20060;-77
2022/01/17 08:16:07;;;;;;;22.48;11.00;;;;;;;2.26;91.96;100401.31;5040056;28;20037;-76
2022/01/17 08:18:33;;;;;;;19.95;9.98;;;;;;;2.35;91.88;100389.09;5044484;28;20036;-77
2022/01/17 08:20:59;;;;;;;20.38;10.07;;;;;;;2.17;93.34;100388.59;5045429;28;20029;-76
2022/01/17 08:23:25;;;;;;;23.13;10.57;;;;;;;2.29;93.72;100408.25;5030445;28;20030;-74
2022/01/17 08:25:50;;;;;;;20.75;9.82;;;;;;;2.13;93.09;100408.50;5040424;28;20064;-74
2022/01/17 08:28:16;;;;;;;20.65;9.85;;;;;;;2.27;92.80;100419.03;5039890;28;20052;-74
2022/01/17 08:30:41;;;;;;;23.08;9.95;;;;;;;2.24;93.34;100411.25;5041871;28;20048;-74
2022/01/17 08:33:06;;;;;;;20.15;9.80;;;;;;;2.36;92.98;100415.69;5035666;28;20028;-74
2022/01/17 08:35:32;;;;;;;22.85;11.02;;;;;;;2.40;92.89;100414.50;5044538;28;20025;-74
2022/01/17 08:37:57;;;;;;;23.30;10.38;;;;;;;2.51;92.42;100420.88;5040379;28;20040;-76
2022/01/17 08:40:23;;;;;;;21.92;10.35;;;;;;;2.31;92.74;100417.84;5037995;28;20025;-75
2022/01/17 08:42:49;;;;;;;22.27;10.38;;;;;;;2.44;92.40;100417.81;5031073;28;20037;-74
2022/01/17 08:45:15;;;;;;;22.60;10.73;;;;;;;2.53;91.66;100410.94;5031037;28;20391;-74
2022/01/17 08:47:46;;;;;;;21.80;10.27;;;;;;;2.55;91.41;100401.00;5039240;28;20029;-74
2022/01/17 08:50:12;;;;;;;20.98;10.43;;;;;;;2.45;91.82;100381.28;5041799;28;20482;-73
2022/01/17 08:52:37;;;;;;;20.05;10.10;;;;;;;2.71;91.55;100412.25;5045269;28;20025;-74
2022/01/17 08:55:04;;;;;;;19.52;9.93;;;;;;;2.61;92.00;100400.53;5043658;28;20486;-74
2022/01/17 08:57:29;;;;;;;21.00;10.60;;;;;;;2.68;91.00;100409.81;5052391;28;20414;-77
2022/01/17 08:59:54;;;;;;;20.00;10.02;;;;;;;2.70;90.47;100386.50;5086766;22;20078;-75
2022/01/17 09:02:20;;;;;;;19.77;10.20;;;;;;;2.72;90.27;100384.56;5057251;28;20117;-75
2022/01/17 09:04:46;;;;;;;20.55;9.60;;;;;;;2.81;90.38;100409.75;5065536;28;20035;-76
2022/01/17 09:07:15;;;;;;;19.35;10.27;;;;;;;2.75;90.10;100395.03;5068467;28;20020;-77
2022/01/17 09:09:42;;;;;;;21.02;9.82;;;;;;;2.94;90.10;100428.41;5057201;28;20028;-74
2022/01/17 09:12:10;;;;;;;17.92;8.82;;;;;;;2.91;90.46;100432.19;5042960;28;20033;-72
2022/01/17 09:14:36;;;;;;;17.10;9.03;;;;;;;2.67;91.49;100423.28;5048119;28;20082;-70
2022/01/17 09:17:07;;;;;;;19.80;9.43;;;;;;;2.69;91.22;100414.19;5043348;28;20322;-74
2022/01/17 09:19:33;;;;;;;17.75;8.90;;;;;;;2.85;90.56;100404.06;5039685;28;20492;-78
2022/01/17 09:21:58;;;;;;;19.75;10.00;;;;;;;2.90;90.71;100413.56;5051625;28;20110;-76
2022/01/17 09:24:24;;;;;;;17.65;8.55;;;;;;;2.68;91.95;100428.53;5052501;28;20028;-76
2022/01/17 09:26:49;;;;;;;15.82;8.35;;;;;;;2.81;92.40;100437.34;5053433;28;20112;-73
2022/01/17 09:29:15;;;;;;;15.48;8.82;;;;;;;2.73;92.29;100445.06;5046578;28;20040;-76
2022/01/17 09:31:40;;;;;;;20.30;9.07;;;;;;;2.85;92.59;100454.84;5049971;28;20445;-76
2022/01/17 09:34:05;;;;;;;17.95;8.88;;;;;;;2.85;91.69;100460.19;5047158;28;20072;-78
2022/01/17 09:36:34;;;;;;;14.50;7.88;;;;;;;2.72;92.63;100463.88;5044316;28;20483;-73
2022/01/17 09:39:00;;;;;;;19.80;9.00;;;;;;;2.74;92.51;100453.94;5044931;28;20033;-78
2022/01/17 09:41:26;;;;;;;18.10;9.23;;;;;;;2.90;91.02;100480.41;5044849;28;20286;-78
2022/01/17 09:43:54;;;;;;;16.88;8.45;;;;;;;2.85;92.73;100470.88;5050810;28;20090;-82
2022/01/17 09:46:23;;;;;;;16.42;8.85;;;;;;;2.95;90.91;100487.09;5044937;28;20035;-77
2022/01/17 09:48:50;;;;;;;17.38;8.70;;;;;;;3.16;90.92;100499.84;5053982;28;20027;-79
2022/01/17 09:52:08;;;;;;;16.90;8.00;;;;;;;3.27;90.04;100506.13;5068499;28;20017;-78
2022/01/17 09:54:05;;;;;;;14.88;7.55;;;;;;;2.93;91.43;100448.09;5058509;28;20088;-77
2022/01/17 09:56:31;;;;;;;14.05;7.43;;;;;;;3.38;89.92;100499.09;5076284;28;20028;-77
2022/01/17 09:58:58;;;;;;;17.27;8.38;;;;;;;3.42;90.14;100500.59;5062256;28;20502;-73
2022/01/17 10:01:25;;;;;;;15.20;7.47;;;;;;;3.59;89.34;100510.00;5062538;28;20097;-72
2022/01/17 10:03:52;;;;;;;14.30;7.57;;;;;;;3.46;89.18;100462.78;5045473;28;20047;-66
2022/01/17 10:06:18;;;;;;;14.32;7.35;;;;;;;3.54;89.57;100488.97;5042630;28;20029;-74
2022/01/17 10:08:44;;;;;;;14.95;7.00;;;;;;;3.68;89.57;100485.22;5061112;28;20036;-73
2022/01/17 10:11:15;;;;;;;13.02;6.80;;;;;;;3.76;89.14;100481.94;5068145;28;20017;-73
2022/01/17 10:13:45;;;;;;;11.30;6.15;;;;;;;3.80;88.70;100467.34;5059547;28;20025;-73
2022/01/17 10:16:14;;;;;;;14.27;6.60;;;;;;;3.64;88.71;100456.97;5051196;28;20022;-75
2022/01/17 10:18:48;;;;;;;10.32;5.75;;;;;;;3.86;87.88;100488.31;5058294;28;20017;-75
2022/01/17 10:21:26;;;;;;;12.55;6.30;;;;;;;3.85;88.64;100474.06;5053657;28;20032;-76
2022/01/17 10:37:07;;;;;;;10.93;6.28;;;;;;;4.23;87.10;100488.94;5046835;28;20032;-73
2022/01/17 10:39:35;;;;;;;10.07;5.65;;;;;;;4.43;85.82;100514.19;5051819;28;20398;-72
2022/01/17 10:42:22;;;;;;;10.52;6.07;;;;;;;4.61;85.33;100511.81;5048222;28;20060;-79
2022/01/17 10:44:47;;;;;;;10.38;6.35;;;;;;;4.69;85.07;100497.81;5035076;28;20026;-80
2022/01/17 10:47:26;;;;;;;11.90;6.55;;;;;;;4.78;84.63;100492.56;5037926;28;20023;-79
2022/01/17 10:49:53;;;;;;;12.93;6.40;;;;;;;5.03;82.78;100487.84;5040201;28;20647;-71
2022/01/17 10:52:33;;;;;;;12.38;6.63;;;;;;;5.45;82.41;100488.81;5040844;28;20029;-74
2022/01/17 10:55:20;;;;;;;11.43;6.35;;;;;;;5.17;82.37;100508.22;5053422;28;20054;-76
2022/01/17 10:57:49;;;;;;;12.02;6.03;;;;;;;5.19;81.27;100495.53;5042689;28;20039;-74
2022/01/17 11:00:23;;;;;;;12.23;6.68;;;;;;;5.32;82.00;100527.53;5047413;28;20036;-77
2022/01/17 11:02:54;;;;;;;11.85;6.43;;;;;;;5.23;81.62;100492.44;5052584;28;20112;-77
2022/01/17 11:05:22;;;;;;;12.73;6.13;;;;;;;5.41;80.62;100508.84;5053027;28;20466;-72
2022/01/17 11:07:52;;;;;;;12.73;6.63;;;;;;;4.97;81.40;100480.31;5049496;28;20021;-72
2022/01/17 11:10:25;;;;;;;10.77;5.57;;;;;;;4.80;82.75;100495.97;5035543;28;20029;-71
2022/01/17 11:12:52;;;;;;;13.07;6.53;;;;;;;4.42;85.17;100488.34;5037649;28;20114;-72
2022/01/17 11:15:20;;;;;;;13.73;6.20;;;;;;;4.90;83.93;100516.66;5043497;28;20025;-73
2022/01/17 11:17:52;;;;;;;9.70;5.30;;;;;;;4.59;83.59;100477.13;5052437;28;20029;-72
2022/01/17 11:20:21;;;;;;;10.05;5.72;;;;;;;5.13;83.11;100510.28;5044634;28;20021;-72
2022/01/17 11:22:49;;;;;;;12.00;6.60;;;;;;;5.21;82.07;100504.28;5038956;28;20065;-72
2022/01/17 11:25:18;;;;;;;11.13;6.47;;;;;;;5.23;80.99;100496.97;5040377;28;20060;-72
2022/01/17 11:27:44;;;;;;;12.23;6.10;;;;;;;5.19;81.58;100508.94;5037267;28;20020;-72
2022/01/17 11:30:10;;;;;;;10.25;5.70;;;;;;;4.86;82.51;100494.63;5049065;28;20029;-72
2022/01/17 11:32:36;;;;;;;16.52;7.20;;;;;;;5.11;82.50;100508.69;5040581;28;20115;-72
2022/01/17 11:35:03;;;;;;;10.80;5.80;;;;;;;5.16;81.51;100488.59;5047347;28;20358;-73
2022/01/17 11:37:34;;;;;;;12.32;6.57;;;;;;;5.22;81.95;100474.66;5044677;28;20036;-72
2022/01/17 11:40:00;;;;;;;11.63;5.95;;;;;;;5.29;80.92;100488.38;5036830;28;20029;-72
2022/01/17 11:42:28;;;;;;;10.05;5.55;;;;;;;5.45;79.89;100485.31;5034586;28;20638;-72
2022/01/17 11:44:54;;;;;;;9.27;5.50;;;;;;;4.87;81.96;100490.94;5039485;28;20128;-72
2022/01/17 11:47:45;;;;;;;11.50;6.25;;;;;;;4.50;84.57;100496.59;5034228;28;20614;-72
2022/01/17 11:50:33;;;;;;;12.27;6.03;;;;;;;4.67;83.84;100494.44;5046354;28;20029;-76
2022/01/17 11:53:20;;;;;;;13.65;6.47;;;;;;;4.54;84.79;100473.97;5040660;28;20038;-71
2022/01/17 11:55:47;;;;;;;10.80;6.50;;;;;;;4.42;85.62;100463.38;5028942;28;20041;-72